sensor_id;sensor_type;location;lat;lon;timestamp;P1;durP1;ratioP1;P2;durP2;ratioP2
49340;SDS011;35209;51.050;13.678;2024-01-10T00:00:01;37.65;;;20.00;;
49340;SDS011;35209;51.050;13.678;2024-01-10T00:05:04;27.48;;;16.70;;
49340;SDS011;35209;51.050;13.678;2024-01-10T00:10:06;36.20;;;16.52;;
49340;SDS011;35209;51.050;13.678;2024-01-10T00:15:09;38.35;;;17.70;;
49340;SDS011;35209;51.050;13.678;2024-01-10T00:20:11;53.05;;;20.10;;
49340;SDS011;35209;51.050;13.678;2024-01-10T00:25:13;42.80;;;17.67;;
49340;SDS011;35209;51.050;13.678;2024-01-10T00:30:14;35.92;;;16.90;;
49340;SDS011;35209;51.050;13.678;2024-01-10T00:35:16;32.67;;;17.85;;
49340;SDS011;35209;51.050;13.678;2024-01-10T00:40:18;30.13;;;14.57;;
49340;SDS011;35209;51.050;13.678;2024-01-10T00:45:20;28.77;;;15.05;;
49340;SDS011;35209;51.050;13.678;2024-01-10T00:50:22;31.83;;;15.55;;
49340;SDS011;35209;51.050;13.678;2024-01-10T00:55:24;29.63;;;14.38;;
49340;SDS011;35209;51.050;13.678;2024-01-10T01:00:26;49.53;;;16.40;;
49340;SDS011;35209;51.050;13.678;2024-01-10T01:05:28;32.75;;;16.15;;
49340;SDS011;35209;51.050;13.678;2024-01-10T01:10:30;17.73;;;14.95;;
49340;SDS011;35209;51.050;13.678;2024-01-10T01:15:34;37.45;;;15.73;;
49340;SDS011;35209;51.050;13.678;2024-01-10T01:20:36;40.97;;;16.88;;
49340;SDS011;35209;51.050;13.678;2024-01-10T01:25:37;36.90;;;13.95;;
49340;SDS011;35209;51.050;13.678;2024-01-10T01:30:39;33.90;;;16.88;;
49340;SDS011;35209;51.050;13.678;2024-01-10T01:35:41;35.53;;;14.77;;
49340;SDS011;35209;51.050;13.678;2024-01-10T01:40:43;29.60;;;14.98;;
49340;SDS011;35209;51.050;13.678;2024-01-10T01:45:45;34.50;;;15.73;;
49340;SDS011;35209;51.050;13.678;2024-01-10T01:50:47;29.20;;;17.52;;
49340;SDS011;35209;51.050;13.678;2024-01-10T01:55:52;28.52;;;15.23;;
49340;SDS011;35209;51.050;13.678;2024-01-10T02:00:54;29.40;;;15.07;;
49340;SDS011;35209;51.050;13.678;2024-01-10T02:05:57;37.72;;;16.50;;
49340;SDS011;35209;51.050;13.678;2024-01-10T02:10:59;41.47;;;16.92;;
49340;SDS011;35209;51.050;13.678;2024-01-10T02:16:03;24.63;;;13.35;;
49340;SDS011;35209;51.050;13.678;2024-01-10T02:21:06;24.20;;;15.73;;
49340;SDS011;35209;51.050;13.678;2024-01-10T02:26:08;23.00;;;13.45;;
49340;SDS011;35209;51.050;13.678;2024-01-10T02:31:10;51.25;;;15.20;;
49340;SDS011;35209;51.050;13.678;2024-01-10T02:36:12;36.70;;;18.55;;
49340;SDS011;35209;51.050;13.678;2024-01-10T02:41:14;35.75;;;14.65;;
49340;SDS011;35209;51.050;13.678;2024-01-10T02:46:15;33.42;;;14.20;;
49340;SDS011;35209;51.050;13.678;2024-01-10T02:51:17;28.92;;;14.45;;
49340;SDS011;35209;51.050;13.678;2024-01-10T02:56:19;34.80;;;14.55;;
49340;SDS011;35209;51.050;13.678;2024-01-10T03:01:21;32.45;;;15.13;;
49340;SDS011;35209;51.050;13.678;2024-01-10T03:06:23;20.73;;;14.00;;
49340;SDS011;35209;51.050;13.678;2024-01-10T03:11:26;29.38;;;15.48;;
49340;SDS011;35209;51.050;13.678;2024-01-10T03:16:28;31.55;;;12.98;;
49340;SDS011;35209;51.050;13.678;2024-01-10T03:21:29;32.05;;;13.77;;
49340;SDS011;35209;51.050;13.678;2024-01-10T03:26:31;39.42;;;16.00;;
49340;SDS011;35209;51.050;13.678;2024-01-10T03:31:33;36.53;;;14.93;;
49340;SDS011;35209;51.050;13.678;2024-01-10T03:36:35;32.95;;;15.52;;
49340;SDS011;35209;51.050;13.678;2024-01-10T03:41:37;26.35;;;15.23;;
49340;SDS011;35209;51.050;13.678;2024-01-10T03:46:39;34.08;;;15.73;;
49340;SDS011;35209;51.050;13.678;2024-01-10T03:51:41;22.20;;;13.38;;
49340;SDS011;35209;51.050;13.678;2024-01-10T03:56:43;35.58;;;14.60;;
49340;SDS011;35209;51.050;13.678;2024-01-10T04:01:45;23.05;;;14.00;;
49340;SDS011;35209;51.050;13.678;2024-01-10T04:06:47;43.22;;;14.75;;
49340;SDS011;35209;51.050;13.678;2024-01-10T04:11:49;32.13;;;14.35;;
49340;SDS011;35209;51.050;13.678;2024-01-10T04:16:50;39.17;;;15.40;;
49340;SDS011;35209;51.050;13.678;2024-01-10T04:21:53;27.00;;;13.75;;
49340;SDS011;35209;51.050;13.678;2024-01-10T04:26:55;29.17;;;15.27;;
49340;SDS011;35209;51.050;13.678;2024-01-10T04:31:57;27.10;;;14.05;;
49340;SDS011;35209;51.050;13.678;2024-01-10T04:36:58;21.13;;;13.43;;
49340;SDS011;35209;51.050;13.678;2024-01-10T04:42:00;23.60;;;13.27;;
49340;SDS011;35209;51.050;13.678;2024-01-10T04:47:03;35.60;;;13.57;;
49340;SDS011;35209;51.050;13.678;2024-01-10T04:52:06;24.10;;;13.25;;
49340;SDS011;35209;51.050;13.678;2024-01-10T04:57:07;28.70;;;15.02;;
49340;SDS011;35209;51.050;13.678;2024-01-10T05:02:09;30.05;;;16.27;;
49340;SDS011;35209;51.050;13.678;2024-01-10T05:07:12;30.13;;;13.88;;
49340;SDS011;35209;51.050;13.678;2024-01-10T05:12:13;36.40;;;15.27;;
49340;SDS011;35209;51.050;13.678;2024-01-10T05:17:15;33.80;;;14.88;;
49340;SDS011;35209;51.050;13.678;2024-01-10T05:22:17;30.73;;;13.27;;
49340;SDS011;35209;51.050;13.678;2024-01-10T05:27:19;30.08;;;12.07;;
49340;SDS011;35209;51.050;13.678;2024-01-10T05:32:21;31.70;;;13.68;;
49340;SDS011;35209;51.050;13.678;2024-01-10T05:37:23;17.83;;;13.88;;
49340;SDS011;35209;51.050;13.678;2024-01-10T05:42:24;23.48;;;14.20;;
49340;SDS011;35209;51.050;13.678;2024-01-10T05:47:27;30.83;;;12.60;;
49340;SDS011;35209;51.050;13.678;2024-01-10T05:52:29;32.47;;;14.35;;
49340;SDS011;35209;51.050;13.678;2024-01-10T05:57:32;27.92;;;15.48;;
49340;SDS011;35209;51.050;13.678;2024-01-10T06:02:34;32.47;;;16.42;;
49340;SDS011;35209;51.050;13.678;2024-01-10T06:07:36;31.13;;;13.32;;
49340;SDS011;35209;51.050;13.678;2024-01-10T06:12:38;28.67;;;15.52;;
49340;SDS011;35209;51.050;13.678;2024-01-10T06:17:40;28.35;;;15.00;;
49340;SDS011;35209;51.050;13.678;2024-01-10T06:22:42;29.55;;;16.55;;
49340;SDS011;35209;51.050;13.678;2024-01-10T06:27:44;62.53;;;26.48;;
49340;SDS011;35209;51.050;13.678;2024-01-10T06:32:46;29.38;;;15.63;;
49340;SDS011;35209;51.050;13.678;2024-01-10T06:37:48;32.15;;;16.48;;
49340;SDS011;35209;51.050;13.678;2024-01-10T06:42:50;37.15;;;16.80;;
49340;SDS011;35209;51.050;13.678;2024-01-10T06:47:51;24.00;;;13.13;;
49340;SDS011;35209;51.050;13.678;2024-01-10T06:52:53;32.45;;;14.70;;
49340;SDS011;35209;51.050;13.678;2024-01-10T06:57:55;30.55;;;14.30;;
49340;SDS011;35209;51.050;13.678;2024-01-10T07:03:00;32.85;;;15.57;;
49340;SDS011;35209;51.050;13.678;2024-01-10T07:08:04;32.28;;;12.93;;
49340;SDS011;35209;51.050;13.678;2024-01-10T07:13:06;32.58;;;14.50;;
49340;SDS011;35209;51.050;13.678;2024-01-10T07:18:08;39.95;;;17.67;;
49340;SDS011;35209;51.050;13.678;2024-01-10T07:23:10;37.20;;;17.85;;
49340;SDS011;35209;51.050;13.678;2024-01-10T07:28:12;23.73;;;13.10;;
49340;SDS011;35209;51.050;13.678;2024-01-10T07:33:14;26.45;;;15.73;;
49340;SDS011;35209;51.050;13.678;2024-01-10T07:38:15;44.75;;;17.75;;
49340;SDS011;35209;51.050;13.678;2024-01-10T07:43:17;44.58;;;16.75;;
49340;SDS011;35209;51.050;13.678;2024-01-10T07:48:19;45.83;;;17.48;;
49340;SDS011;35209;51.050;13.678;2024-01-10T07:53:21;23.25;;;15.25;;
49340;SDS011;35209;51.050;13.678;2024-01-10T07:58:23;35.05;;;16.35;;
49340;SDS011;35209;51.050;13.678;2024-01-10T08:03:25;41.15;;;16.73;;
49340;SDS011;35209;51.050;13.678;2024-01-10T08:08:27;29.35;;;15.82;;
49340;SDS011;35209;51.050;13.678;2024-01-10T08:13:29;33.22;;;17.50;;
49340;SDS011;35209;51.050;13.678;2024-01-10T08:18:31;154.32;;;51.05;;
49340;SDS011;35209;51.050;13.678;2024-01-10T08:23:34;39.65;;;15.80;;
49340;SDS011;35209;51.050;13.678;2024-01-10T08:28:36;48.72;;;18.58;;
49340;SDS011;35209;51.050;13.678;2024-01-10T08:33:38;33.75;;;18.98;;
49340;SDS011;35209;51.050;13.678;2024-01-10T08:38:41;34.72;;;17.98;;
49340;SDS011;35209;51.050;13.678;2024-01-10T08:43:43;40.50;;;17.08;;
49340;SDS011;35209;51.050;13.678;2024-01-10T08:48:45;32.63;;;15.27;;
49340;SDS011;35209;51.050;13.678;2024-01-10T08:53:49;31.35;;;15.90;;
49340;SDS011;35209;51.050;13.678;2024-01-10T08:58:50;42.33;;;15.20;;
49340;SDS011;35209;51.050;13.678;2024-01-10T09:03:52;33.35;;;15.48;;
49340;SDS011;35209;51.050;13.678;2024-01-10T09:08:54;23.45;;;15.93;;
49340;SDS011;35209;51.050;13.678;2024-01-10T09:13:56;31.05;;;15.07;;
49340;SDS011;35209;51.050;13.678;2024-01-10T09:18:58;50.65;;;18.52;;
49340;SDS011;35209;51.050;13.678;2024-01-10T09:24:01;39.88;;;15.52;;
49340;SDS011;35209;51.050;13.678;2024-01-10T09:29:23;38.20;;;17.80;;
49340;SDS011;35209;51.050;13.678;2024-01-10T09:34:25;27.40;;;14.15;;
49340;SDS011;35209;51.050;13.678;2024-01-10T09:39:27;36.35;;;17.45;;
49340;SDS011;35209;51.050;13.678;2024-01-10T09:44:29;30.40;;;16.45;;
49340;SDS011;35209;51.050;13.678;2024-01-10T09:49:31;31.80;;;17.27;;
49340;SDS011;35209;51.050;13.678;2024-01-10T09:54:35;29.13;;;15.98;;
49340;SDS011;35209;51.050;13.678;2024-01-10T09:59:41;27.93;;;16.20;;
49340;SDS011;35209;51.050;13.678;2024-01-10T10:04:49;35.13;;;16.02;;
49340;SDS011;35209;51.050;13.678;2024-01-10T10:09:59;30.40;;;16.73;;
49340;SDS011;35209;51.050;13.678;2024-01-10T10:15:08;30.48;;;14.85;;
49340;SDS011;35209;51.050;13.678;2024-01-10T10:25:31;36.72;;;16.27;;
49340;SDS011;35209;51.050;13.678;2024-01-10T10:30:37;36.13;;;15.27;;
49340;SDS011;35209;51.050;13.678;2024-01-10T10:35:39;31.60;;;14.68;;
49340;SDS011;35209;51.050;13.678;2024-01-10T10:40:46;27.80;;;14.68;;
49340;SDS011;35209;51.050;13.678;2024-01-10T10:45:49;23.35;;;14.55;;
49340;SDS011;35209;51.050;13.678;2024-01-10T10:56:16;22.10;;;12.60;;
49340;SDS011;35209;51.050;13.678;2024-01-10T11:01:18;24.73;;;13.95;;
49340;SDS011;35209;51.050;13.678;2024-01-10T11:06:21;27.90;;;15.02;;
49340;SDS011;35209;51.050;13.678;2024-01-10T11:28:26;23.10;;;13.35;;
49340;SDS011;35209;51.050;13.678;2024-01-10T11:33:32;23.70;;;14.60;;
49340;SDS011;35209;51.050;13.678;2024-01-10T11:38:42;22.55;;;13.23;;
49340;SDS011;35209;51.050;13.678;2024-01-10T11:43:44;20.40;;;12.98;;
49340;SDS011;35209;51.050;13.678;2024-01-10T11:48:46;16.95;;;12.38;;
49340;SDS011;35209;51.050;13.678;2024-01-10T11:53:48;14.55;;;11.70;;
49340;SDS011;35209;51.050;13.678;2024-01-10T11:58:55;15.18;;;13.18;;
49340;SDS011;35209;51.050;13.678;2024-01-10T12:03:57;14.43;;;12.10;;
49340;SDS011;35209;51.050;13.678;2024-01-10T12:09:15;20.38;;;15.63;;
49340;SDS011;35209;51.050;13.678;2024-01-10T12:14:17;15.00;;;10.52;;
49340;SDS011;35209;51.050;13.678;2024-01-10T12:19:19;16.70;;;10.57;;
49340;SDS011;35209;51.050;13.678;2024-01-10T12:24:21;13.95;;;9.30;;
49340;SDS011;35209;51.050;13.678;2024-01-10T12:29:23;15.45;;;10.27;;
49340;SDS011;35209;51.050;13.678;2024-01-10T12:34:26;10.80;;;9.05;;
49340;SDS011;35209;51.050;13.678;2024-01-10T12:39:28;15.30;;;10.80;;
49340;SDS011;35209;51.050;13.678;2024-01-10T12:44:33;13.52;;;10.63;;
49340;SDS011;35209;51.050;13.678;2024-01-10T12:49:35;20.20;;;12.32;;
49340;SDS011;35209;51.050;13.678;2024-01-10T12:54:39;21.10;;;14.00;;
49340;SDS011;35209;51.050;13.678;2024-01-10T12:59:41;17.25;;;12.27;;
49340;SDS011;35209;51.050;13.678;2024-01-10T13:04:43;17.83;;;10.85;;
49340;SDS011;35209;51.050;13.678;2024-01-10T13:09:45;20.58;;;11.35;;
49340;SDS011;35209;51.050;13.678;2024-01-10T13:14:47;12.43;;;9.77;;
49340;SDS011;35209;51.050;13.678;2024-01-10T13:19:49;15.93;;;9.02;;
49340;SDS011;35209;51.050;13.678;2024-01-10T13:24:51;10.68;;;7.72;;
49340;SDS011;35209;51.050;13.678;2024-01-10T13:29:54;12.35;;;8.85;;
49340;SDS011;35209;51.050;13.678;2024-01-10T13:34:55;11.40;;;8.82;;
49340;SDS011;35209;51.050;13.678;2024-01-10T13:39:58;11.75;;;8.77;;
49340;SDS011;35209;51.050;13.678;2024-01-10T13:45:01;10.10;;;8.10;;
49340;SDS011;35209;51.050;13.678;2024-01-10T13:50:03;16.45;;;9.23;;
49340;SDS011;35209;51.050;13.678;2024-01-10T13:55:05;16.65;;;10.48;;
49340;SDS011;35209;51.050;13.678;2024-01-10T14:00:07;24.15;;;13.90;;
49340;SDS011;35209;51.050;13.678;2024-01-10T14:05:13;24.40;;;14.65;;
49340;SDS011;35209;51.050;13.678;2024-01-10T14:10:15;17.05;;;10.85;;
49340;SDS011;35209;51.050;13.678;2024-01-10T14:15:17;16.75;;;11.52;;
49340;SDS011;35209;51.050;13.678;2024-01-10T14:20:19;17.48;;;10.77;;
49340;SDS011;35209;51.050;13.678;2024-01-10T14:25:22;10.57;;;7.78;;
49340;SDS011;35209;51.050;13.678;2024-01-10T14:30:24;9.07;;;5.90;;
49340;SDS011;35209;51.050;13.678;2024-01-10T14:35:27;6.88;;;4.22;;
49340;SDS011;35209;51.050;13.678;2024-01-10T14:40:29;8.57;;;5.05;;
49340;SDS011;35209;51.050;13.678;2024-01-10T14:45:31;12.05;;;4.60;;
49340;SDS011;35209;51.050;13.678;2024-01-10T14:50:32;5.00;;;3.55;;
49340;SDS011;35209;51.050;13.678;2024-01-10T14:55:34;4.78;;;3.53;;
49340;SDS011;35209;51.050;13.678;2024-01-10T15:00:36;5.32;;;3.25;;
49340;SDS011;35209;51.050;13.678;2024-01-10T15:05:39;9.10;;;5.32;;
49340;SDS011;35209;51.050;13.678;2024-01-10T15:10:42;7.25;;;3.55;;
49340;SDS011;35209;51.050;13.678;2024-01-10T15:15:44;6.57;;;4.45;;
49340;SDS011;35209;51.050;13.678;2024-01-10T15:20:46;9.10;;;5.95;;
49340;SDS011;35209;51.050;13.678;2024-01-10T15:25:51;17.13;;;12.70;;
49340;SDS011;35209;51.050;13.678;2024-01-10T15:30:53;10.85;;;6.80;;
49340;SDS011;35209;51.050;13.678;2024-01-10T15:35:55;7.72;;;6.35;;
49340;SDS011;35209;51.050;13.678;2024-01-10T15:40:57;9.18;;;4.65;;
49340;SDS011;35209;51.050;13.678;2024-01-10T15:46:04;6.22;;;4.70;;
49340;SDS011;35209;51.050;13.678;2024-01-10T15:51:06;6.47;;;4.00;;
49340;SDS011;35209;51.050;13.678;2024-01-10T15:56:08;6.63;;;4.72;;
49340;SDS011;35209;51.050;13.678;2024-01-10T16:01:10;5.05;;;3.97;;
49340;SDS011;35209;51.050;13.678;2024-01-10T16:06:11;7.80;;;4.85;;
49340;SDS011;35209;51.050;13.678;2024-01-10T16:11:14;5.03;;;3.95;;
49340;SDS011;35209;51.050;13.678;2024-01-10T16:16:15;7.40;;;5.00;;
49340;SDS011;35209;51.050;13.678;2024-01-10T16:21:30;7.80;;;4.82;;
49340;SDS011;35209;51.050;13.678;2024-01-10T16:26:33;9.00;;;6.07;;
49340;SDS011;35209;51.050;13.678;2024-01-10T16:31:35;8.75;;;5.43;;
49340;SDS011;35209;51.050;13.678;2024-01-10T16:36:38;8.13;;;4.85;;
49340;SDS011;35209;51.050;13.678;2024-01-10T16:41:40;7.90;;;5.30;;
49340;SDS011;35209;51.050;13.678;2024-01-10T16:46:41;9.77;;;5.88;;
49340;SDS011;35209;51.050;13.678;2024-01-10T16:51:43;6.78;;;5.18;;
49340;SDS011;35209;51.050;13.678;2024-01-10T16:56:45;7.80;;;5.25;;
49340;SDS011;35209;51.050;13.678;2024-01-10T17:01:47;7.65;;;4.43;;
49340;SDS011;35209;51.050;13.678;2024-01-10T17:06:49;6.70;;;5.13;;
49340;SDS011;35209;51.050;13.678;2024-01-10T17:11:51;6.18;;;5.20;;
49340;SDS011;35209;51.050;13.678;2024-01-10T17:16:53;7.50;;;5.65;;
49340;SDS011;35209;51.050;13.678;2024-01-10T17:21:55;11.25;;;6.63;;
49340;SDS011;35209;51.050;13.678;2024-01-10T17:26:56;8.77;;;6.80;;
49340;SDS011;35209;51.050;13.678;2024-01-10T17:31:58;9.50;;;7.43;;
49340;SDS011;35209;51.050;13.678;2024-01-10T17:37:00;11.10;;;7.35;;
49340;SDS011;35209;51.050;13.678;2024-01-10T17:42:03;8.70;;;6.80;;
49340;SDS011;35209;51.050;13.678;2024-01-10T17:47:05;11.27;;;7.47;;
49340;SDS011;35209;51.050;13.678;2024-01-10T17:52:07;12.90;;;7.47;;
49340;SDS011;35209;51.050;13.678;2024-01-10T17:57:09;12.43;;;7.72;;
49340;SDS011;35209;51.050;13.678;2024-01-10T18:02:10;10.30;;;7.18;;
49340;SDS011;35209;51.050;13.678;2024-01-10T18:07:12;13.95;;;7.35;;
49340;SDS011;35209;51.050;13.678;2024-01-10T18:12:14;12.20;;;7.90;;
49340;SDS011;35209;51.050;13.678;2024-01-10T18:17:16;16.92;;;10.88;;
49340;SDS011;35209;51.050;13.678;2024-01-10T18:22:18;17.55;;;10.20;;
49340;SDS011;35209;51.050;13.678;2024-01-10T18:27:19;18.55;;;10.35;;
49340;SDS011;35209;51.050;13.678;2024-01-10T18:32:21;17.67;;;9.85;;
49340;SDS011;35209;51.050;13.678;2024-01-10T18:37:23;16.52;;;10.85;;
49340;SDS011;35209;51.050;13.678;2024-01-10T18:42:25;25.70;;;12.18;;
49340;SDS011;35209;51.050;13.678;2024-01-10T18:47:27;17.88;;;10.05;;
49340;SDS011;35209;51.050;13.678;2024-01-10T18:52:29;19.02;;;10.10;;
49340;SDS011;35209;51.050;13.678;2024-01-10T18:57:30;18.50;;;9.60;;
49340;SDS011;35209;51.050;13.678;2024-01-10T19:02:32;13.55;;;8.75;;
49340;SDS011;35209;51.050;13.678;2024-01-10T19:07:34;10.50;;;8.10;;
49340;SDS011;35209;51.050;13.678;2024-01-10T19:12:36;15.40;;;9.05;;
49340;SDS011;35209;51.050;13.678;2024-01-10T19:17:38;12.50;;;8.85;;
49340;SDS011;35209;51.050;13.678;2024-01-10T19:22:40;16.40;;;10.10;;
49340;SDS011;35209;51.050;13.678;2024-01-10T19:27:42;13.85;;;10.00;;
49340;SDS011;35209;51.050;13.678;2024-01-10T19:32:44;16.75;;;9.02;;
49340;SDS011;35209;51.050;13.678;2024-01-10T19:37:49;24.88;;;11.25;;
49340;SDS011;35209;51.050;13.678;2024-01-10T19:42:51;23.73;;;11.43;;
49340;SDS011;35209;51.050;13.678;2024-01-10T19:47:53;36.83;;;17.98;;
49340;SDS011;35209;51.050;13.678;2024-01-10T19:52:55;13.10;;;9.82;;
49340;SDS011;35209;51.050;13.678;2024-01-10T19:57:58;18.35;;;10.43;;
49340;SDS011;35209;51.050;13.678;2024-01-10T20:03:00;15.82;;;10.57;;
49340;SDS011;35209;51.050;13.678;2024-01-10T20:08:01;15.45;;;9.88;;
49340;SDS011;35209;51.050;13.678;2024-01-10T20:13:04;12.85;;;9.13;;
49340;SDS011;35209;51.050;13.678;2024-01-10T20:18:09;15.25;;;9.02;;
49340;SDS011;35209;51.050;13.678;2024-01-10T20:23:13;15.48;;;9.57;;
49340;SDS011;35209;51.050;13.678;2024-01-10T20:28:15;13.80;;;8.93;;
49340;SDS011;35209;51.050;13.678;2024-01-10T20:33:19;12.07;;;9.18;;
49340;SDS011;35209;51.050;13.678;2024-01-10T20:38:21;14.55;;;9.48;;
49340;SDS011;35209;51.050;13.678;2024-01-10T20:43:23;15.93;;;9.70;;
49340;SDS011;35209;51.050;13.678;2024-01-10T20:48:28;14.20;;;10.05;;
49340;SDS011;35209;51.050;13.678;2024-01-10T20:53:30;13.18;;;8.75;;
49340;SDS011;35209;51.050;13.678;2024-01-10T20:58:33;24.90;;;8.40;;
49340;SDS011;35209;51.050;13.678;2024-01-10T21:03:35;17.92;;;9.60;;
49340;SDS011;35209;51.050;13.678;2024-01-10T21:08:37;11.40;;;7.97;;
49340;SDS011;35209;51.050;13.678;2024-01-10T21:13:39;14.45;;;9.15;;
49340;SDS011;35209;51.050;13.678;2024-01-10T21:18:41;14.95;;;9.85;;
49340;SDS011;35209;51.050;13.678;2024-01-10T21:23:43;18.00;;;10.50;;
49340;SDS011;35209;51.050;13.678;2024-01-10T21:28:44;16.23;;;9.77;;
49340;SDS011;35209;51.050;13.678;2024-01-10T21:33:46;11.82;;;9.00;;
49340;SDS011;35209;51.050;13.678;2024-01-10T21:38:48;16.23;;;9.13;;
49340;SDS011;35209;51.050;13.678;2024-01-10T21:43:50;20.45;;;9.15;;
49340;SDS011;35209;51.050;13.678;2024-01-10T21:48:52;14.77;;;7.25;;
49340;SDS011;35209;51.050;13.678;2024-01-10T21:53:54;13.15;;;7.90;;
49340;SDS011;35209;51.050;13.678;2024-01-10T21:58:56;11.45;;;7.38;;
49340;SDS011;35209;51.050;13.678;2024-01-10T22:03:59;14.30;;;9.27;;
49340;SDS011;35209;51.050;13.678;2024-01-10T22:09:01;12.90;;;9.00;;
49340;SDS011;35209;51.050;13.678;2024-01-10T22:14:03;14.80;;;9.55;;
49340;SDS011;35209;51.050;13.678;2024-01-10T22:19:04;13.77;;;8.90;;
49340;SDS011;35209;51.050;13.678;2024-01-10T22:24:06;16.58;;;8.88;;
49340;SDS011;35209;51.050;13.678;2024-01-10T22:29:08;10.55;;;6.72;;
49340;SDS011;35209;51.050;13.678;2024-01-10T22:34:10;10.70;;;8.77;;
49340;SDS011;35209;51.050;13.678;2024-01-10T22:39:12;17.27;;;8.80;;
49340;SDS011;35209;51.050;13.678;2024-01-10T22:44:14;13.68;;;9.05;;
49340;SDS011;35209;51.050;13.678;2024-01-10T22:49:18;16.42;;;9.35;;
49340;SDS011;35209;51.050;13.678;2024-01-10T22:54:23;15.05;;;8.35;;
49340;SDS011;35209;51.050;13.678;2024-01-10T22:59:24;10.10;;;8.48;;
49340;SDS011;35209;51.050;13.678;2024-01-10T23:04:26;14.13;;;8.18;;
49340;SDS011;35209;51.050;13.678;2024-01-10T23:09:28;10.95;;;8.45;;
49340;SDS011;35209;51.050;13.678;2024-01-10T23:14:30;14.75;;;8.93;;
49340;SDS011;35209;51.050;13.678;2024-01-10T23:19:32;16.15;;;9.57;;
49340;SDS011;35209;51.050;13.678;2024-01-10T23:24:34;11.02;;;8.48;;
49340;SDS011;35209;51.050;13.678;2024-01-10T23:29:36;11.00;;;8.10;;
49340;SDS011;35209;51.050;13.678;2024-01-10T23:34:38;12.73;;;8.32;;
49340;SDS011;35209;51.050;13.678;2024-01-10T23:39:40;10.48;;;8.15;;
49340;SDS011;35209;51.050;13.678;2024-01-10T23:44:42;12.20;;;8.00;;
49340;SDS011;35209;51.050;13.678;2024-01-10T23:49:43;11.73;;;8.45;;
49340;SDS011;35209;51.050;13.678;2024-01-10T23:54:45;9.68;;;6.93;;
49340;SDS011;35209;51.050;13.678;2024-01-10T23:59:47;8.88;;;7.38;;
